This is the latest recevied weather packets stored in our database for station/object F5TND-3. If no packets are shown the sender has not sent any weather packets the latest 10 day(s).
| Time | Temp. | Humidity | Pressure | Rain* | Wind** | Luminosity | Snow |
|---|---|---|---|---|---|---|---|
| 1787944558 | 20° C | 67% | 1013.3 hPa | - | - | - | - |
| 1787943361 | 20° C | 66% | 1013.3 hPa | - | - | - | - |
| 1787942155 | 20.56° C | 64% | 1013.3 hPa | - | - | - | - |
| 1787940955 | 20.56° C | 70% | 1013.4 hPa | - | - | - | - |
| 1787939755 | 20.56° C | 69% | 1013.5 hPa | - | - | - | - |
| 1787938555 | 20.56° C | 71% | 1013.7 hPa | - | - | - | - |
| 1787937354 | 21.11° C | 66% | 1013.7 hPa | - | - | - | - |
| 1787936155 | 22.78° C | 59% | 1013.6 hPa | - | - | - | - |
| 1787934955 | 21.67° C | 65% | 1013.7 hPa | - | - | - | - |
| 1787933755 | 23.89° C | 55% | 1013.6 hPa | - | - | - | - |
| 1787932555 | 23.33° C | 56% | 1013.8 hPa | - | - | - | - |
| 1787931355 | 22.78° C | 56% | 1013.7 hPa | - | - | - | - |
| 1787930155 | 23.89° C | 56% | 1013.5 hPa | - | - | - | - |
| 1787928955 | 23.89° C | 56% | 1013.4 hPa | - | - | - | - |
| 1787927755 | 23.33° C | 59% | 1013.5 hPa | - | - | - | - |
| 1787926554 | 23.89° C | 57% | 1013.4 hPa | - | - | - | - |
| 1787924155 | 24.44° C | 51% | 1013.2 hPa | - | - | - | - |
| 1787922954 | 25.56° C | 51% | 1013.1 hPa | - | - | - | - |
| 1787921754 | 24.44° C | 52% | 1013 hPa | - | - | - | - |
| 1787920558 | 23.89° C | 55% | 1012.8 hPa | - | - | - | - |
| 1787919354 | 23.33° C | 56% | 1012.6 hPa | - | - | - | - |
| 1787918155 | 25° C | 53% | 1012.6 hPa | - | - | - | - |
| 1787916955 | 23.33° C | 59% | 1012.5 hPa | - | - | - | - |
| 1787915734 | 23.89° C | 58% | 1012.4 hPa | - | - | - | - |
| 1787914534 | 23.89° C | 57% | 1012.1 hPa | - | - | - | - |
* Rain since midnight (hover to see other rain measurements)
** Current wind speed in m/s (hover to see current wind gust speed)